Time;durP1;ratioP1;P1;durP2;ratioP2;P2;SDS_P1;SDS_P2;PMS_P1;PMS_P2;Temp;Humidity;BMP_temperature;BMP_pressure;BME280_temperature;BME280_humidity;BME280_pressure;Samples;Min_cycle;Max_cycle;Signal;HPM_P1;HPM_P2
2023/12/28 00:02:17;;;;;;;35.40;15.30;;;;;;;1.21;81.65;100370.02;130152;1268;115152;-72
2023/12/28 00:05:19;;;;;;;34.30;17.20;;;;;;;1.18;81.91;100360.55;130260;1273;114734;-68
2023/12/28 00:08:22;;;;;;;33.50;17.20;;;;;;;1.17;82.04;100360.38;129866;1264;114781;-74
2023/12/28 00:11:24;;;;;;;39.80;19.00;;;;;;;1.16;82.28;100359.35;129852;1264;114809;-74
2023/12/28 00:14:26;;;;;;;34.00;15.90;;;;;;;1.17;82.09;100358.81;130255;1269;114748;-75
2023/12/28 00:17:28;;;;;;;35.10;17.20;;;;;;;1.16;82.41;100356.01;129912;1277;114814;-75
2023/12/28 00:20:30;;;;;;;32.80;16.60;;;;;;;1.15;82.62;100351.79;129956;1277;114804;-74
2023/12/28 00:23:32;;;;;;;43.40;17.80;;;;;;;1.14;82.44;100338.80;130158;1277;114725;-77
2023/12/28 00:26:35;;;;;;;31.10;15.70;;;;;;;1.13;82.38;100336.35;130277;1258;115430;-76
2023/12/28 00:29:38;;;;;;;35.60;19.50;;;;;;;1.11;82.54;100327.04;130175;1258;114782;-64
2023/12/28 00:32:43;;;;;;;23.40;11.00;;;;;;;1.09;82.61;100328.83;129514;1262;114894;-69
2023/12/28 00:35:45;;;;;;;35.90;16.40;;;;;;;1.05;82.63;100332.38;129873;1262;114934;-73
2023/12/28 00:38:47;;;;;;;35.60;19.50;;;;;;;1.02;82.86;100329.05;130199;1259;114789;-75
2023/12/28 00:41:49;;;;;;;31.30;17.20;;;;;;;1.01;82.92;100324.67;130227;1254;114789;-65
2023/12/28 00:44:52;;;;;;;35.10;19.00;;;;;;;1.00;83.20;100320.09;129914;1277;115279;-69
2023/12/28 00:47:56;;;;;;;42.70;18.20;;;;;;;0.99;83.16;100320.65;130211;1256;114791;-67
2023/12/28 00:50:58;;;;;;;32.20;17.30;;;;;;;0.99;83.31;100318.20;129880;1259;116387;-71
2023/12/28 00:54:01;;;;;;;43.40;21.50;;;;;;;0.98;83.13;100316.27;129900;1277;114733;-70
2023/12/28 00:57:04;;;;;;;42.90;20.30;;;;;;;0.99;83.12;100317.31;130335;1277;115230;-72
2023/12/28 01:00:07;;;;;;;41.50;19.00;;;;;;;0.98;83.59;100313.29;129838;1265;127617;-75
2023/12/28 01:03:09;;;;;;;41.60;18.90;;;;;;;0.97;83.32;100312.77;130335;1257;115399;-70
2023/12/28 01:06:14;;;;;;;34.70;19.90;;;;;;;0.98;83.33;100323.13;130255;1255;114739;-72
2023/12/28 01:09:16;;;;;;;32.50;17.70;;;;;;;0.98;83.65;100316.97;130254;1277;114728;-76
2023/12/28 01:12:18;;;;;;;34.50;17.90;;;;;;;0.98;83.66;100316.09;130208;1272;114730;-68
2023/12/28 01:15:20;;;;;;;37.80;17.00;;;;;;;0.98;83.58;100308.88;130273;1254;114806;-68
2023/12/28 01:18:22;;;;;;;34.40;18.10;;;;;;;0.96;83.71;100313.46;129947;1254;127935;-72
2023/12/28 01:21:24;;;;;;;35.80;19.40;;;;;;;0.97;84.00;100315.75;129889;1273;115204;-73
2023/12/28 01:24:27;;;;;;;36.30;17.60;;;;;;;0.97;83.70;100307.13;129992;1256;115324;-69
2023/12/28 01:27:29;;;;;;;37.10;17.30;;;;;;;0.96;84.01;100304.67;130044;1258;115405;-66
2023/12/28 01:30:31;;;;;;;34.60;17.90;;;;;;;0.94;83.88;100301.70;130237;1259;114813;-75
2023/12/28 01:33:33;;;;;;;35.90;19.80;;;;;;;0.92;84.17;100305.23;130136;1259;114811;-74
2023/12/28 01:36:35;;;;;;;33.10;16.90;;;;;;;0.90;84.06;100301.39;129747;1264;114806;-71
2023/12/28 01:39:39;;;;;;;36.00;17.20;;;;;;;0.91;84.08;100309.64;130064;1259;114732;-72
2023/12/28 01:42:41;;;;;;;34.80;17.90;;;;;;;0.91;84.23;100302.24;130062;1275;115194;-74
2023/12/28 01:45:43;;;;;;;36.70;17.30;;;;;;;0.90;84.42;100292.42;130279;1272;115008;-71
2023/12/28 01:48:49;;;;;;;34.30;18.30;;;;;;;0.88;84.39;100290.33;130183;1259;114731;-68
2023/12/28 01:51:51;;;;;;;35.30;16.60;;;;;;;0.86;84.39;100286.83;130067;1259;115155;-70
2023/12/28 01:54:53;;;;;;;38.60;17.40;;;;;;;0.86;84.53;100283.32;130143;1277;115400;-71
2023/12/28 01:58:00;;;;;;;37.40;17.50;;;;;;;0.84;84.46;100279.46;129663;1277;114927;-71
2023/12/28 02:01:14;;;;;;;34.70;20.10;;;;;;;0.82;84.58;100270.17;129699;1265;128124;-74
2023/12/28 02:04:17;;;;;;;43.00;23.10;;;;;;;0.81;84.77;100256.48;130047;1262;114828;-71
2023/12/28 02:07:21;;;;;;;41.00;19.00;;;;;;;0.80;84.76;100251.56;129952;1278;114888;-74
2023/12/28 02:10:23;;;;;;;40.70;20.80;;;;;;;0.80;85.00;100251.20;129558;1264;114922;-74
2023/12/28 02:13:26;;;;;;;34.70;18.20;;;;;;;0.80;84.82;100246.98;129844;1262;114961;-73
2023/12/28 02:16:39;;;;;;;38.40;17.80;;;;;;;0.79;84.94;100251.05;129939;1262;115291;-74
2023/12/28 02:19:50;;;;;;;39.90;18.40;;;;;;;0.79;85.16;100248.41;129791;1259;128370;-70
2023/12/28 02:22:52;;;;;;;41.00;20.10;;;;;;;0.78;85.10;100237.69;129599;1281;114921;-67
2023/12/28 02:25:54;;;;;;;39.10;17.90;;;;;;;0.76;84.99;100229.62;129675;1265;115376;-69
2023/12/28 02:28:56;;;;;;;39.30;18.70;;;;;;;0.74;84.93;100223.48;129689;1262;115282;-72
2023/12/28 02:32:01;;;;;;;35.60;19.80;;;;;;;0.73;84.95;100224.92;129475;1259;114921;-70
2023/12/28 02:35:14;;;;;;;33.80;17.30;;;;;;;0.71;85.24;100223.52;129516;1265;115181;-72
2023/12/28 02:38:17;;;;;;;35.00;16.80;;;;;;;0.69;85.11;100217.91;129544;1278;128312;-72
2023/12/28 02:41:20;;;;;;;35.40;20.50;;;;;;;0.66;85.16;100216.90;129646;1261;114800;-76
2023/12/28 02:44:22;;;;;;;32.20;17.70;;;;;;;0.65;85.38;100208.66;130108;1259;115043;-74
2023/12/28 02:47:24;;;;;;;26.90;13.10;;;;;;;0.64;85.72;100203.23;130107;1259;114767;-73
2023/12/28 02:50:27;;;;;;;36.80;18.50;;;;;;;0.65;85.70;100200.39;129923;1256;115136;-71
2023/12/28 02:53:29;;;;;;;38.90;17.40;;;;;;;0.66;85.92;100201.44;130288;1257;114730;-70
2023/12/28 02:56:32;;;;;;;34.50;17.60;;;;;;;0.68;85.54;100202.11;130243;1257;114769;-74
2023/12/28 02:59:34;;;;;;;37.60;17.40;;;;;;;0.68;85.94;100197.00;130172;1257;128765;-71
2023/12/28 03:02:37;;;;;;;29.80;13.60;;;;;;;0.68;85.96;100197.70;130181;1277;114747;-70
2023/12/28 03:05:39;;;;;;;33.20;17.60;;;;;;;0.68;86.27;100184.36;130419;1257;114817;-74
2023/12/28 03:08:41;;;;;;;33.40;15.30;;;;;;;0.68;86.26;100171.70;130257;1255;114753;-76
2023/12/28 03:11:46;;;;;;;30.10;14.00;;;;;;;0.68;86.26;100166.61;130175;1277;114706;-76
2023/12/28 03:14:48;;;;;;;38.50;16.60;;;;;;;0.67;86.44;100162.92;130172;1256;114713;-75
2023/12/28 03:17:50;;;;;;;30.80;16.70;;;;;;;0.67;86.16;100160.47;129912;1259;114700;-74
2023/12/28 03:20:53;;;;;;;31.30;15.50;;;;;;;0.68;86.55;100151.13;130238;1254;115491;-67
2023/12/28 03:23:55;;;;;;;32.90;16.50;;;;;;;0.70;86.34;100144.96;130183;1259;114816;-71
2023/12/28 03:26:57;;;;;;;30.90;15.10;;;;;;;0.70;86.78;100146.36;129854;1277;115298;-66
2023/12/28 03:30:00;;;;;;;32.50;16.80;;;;;;;0.69;86.46;100151.14;130263;1259;115154;-73
2023/12/28 03:33:02;;;;;;;30.60;14.70;;;;;;;0.68;86.50;100154.83;129874;1263;115077;-75
2023/12/28 03:36:04;;;;;;;27.20;13.50;;;;;;;0.66;86.55;100149.75;130174;1277;114665;-68
2023/12/28 03:39:08;;;;;;;26.60;14.00;;;;;;;0.65;86.71;100132.73;130236;1277;114739;-73
2023/12/28 03:42:10;;;;;;;30.00;15.30;;;;;;;0.63;86.68;100124.48;130302;1259;115117;-71
2023/12/28 03:45:12;;;;;;;23.90;13.40;;;;;;;0.63;86.61;100128.70;130208;1258;114798;-76
2023/12/28 03:48:14;;;;;;;28.00;12.90;;;;;;;0.64;86.71;100123.60;130176;1259;115215;-75
2023/12/28 03:51:16;;;;;;;29.30;13.30;;;;;;;0.66;86.74;100125.70;130258;1258;115307;-75
2023/12/28 03:54:19;;;;;;;25.40;13.70;;;;;;;0.65;86.65;100119.55;130142;1259;114731;-69
2023/12/28 03:57:21;;;;;;;24.30;12.20;;;;;;;0.63;86.69;100117.98;129911;1259;114831;-75
2023/12/28 04:00:23;;;;;;;28.20;13.30;;;;;;;0.59;86.75;100108.70;130238;1257;114716;-73
2023/12/28 04:03:26;;;;;;;29.50;15.90;;;;;;;0.57;86.93;100108.04;130275;1259;114728;-74
2023/12/28 04:06:28;;;;;;;28.70;15.40;;;;;;;0.54;86.74;100105.25;130248;1271;114842;-77
2023/12/28 04:09:30;;;;;;;27.40;14.40;;;;;;;0.52;86.65;100111.95;130130;1259;115331;-75
2023/12/28 04:12:33;;;;;;;30.10;14.40;;;;;;;0.49;86.53;100122.02;130343;1258;114709;-77
2023/12/28 04:15:35;;;;;;;29.90;18.10;;;;;;;0.45;86.59;100120.64;130229;1259;114740;-65
2023/12/28 04:18:37;;;;;;;34.70;18.10;;;;;;;0.41;86.71;100113.66;130314;1257;114793;-77
2023/12/28 04:21:39;;;;;;;28.40;14.80;;;;;;;0.38;86.67;100111.42;130185;1259;114734;-73
2023/12/28 04:24:41;;;;;;;28.80;18.00;;;;;;;0.34;86.44;100113.39;130138;1259;128886;-74
2023/12/28 04:27:43;;;;;;;33.00;17.70;;;;;;;0.31;86.49;100113.23;130136;1258;115052;-68
2023/12/28 04:30:45;;;;;;;60.20;30.60;;;;;;;0.27;86.20;100116.09;130263;1259;115323;-72
2023/12/28 04:33:47;;;;;;;40.20;21.60;;;;;;;0.22;86.30;100115.62;130186;1277;114864;-67
2023/12/28 04:36:49;;;;;;;43.00;23.20;;;;;;;0.17;86.16;100117.24;130220;1256;114758;-72
2023/12/28 04:39:52;;;;;;;38.70;20.00;;;;;;;0.11;86.20;100111.52;130260;1260;114735;-67
2023/12/28 04:42:55;;;;;;;37.40;21.40;;;;;;;0.06;86.52;100114.36;129975;1260;114726;-71
2023/12/28 04:45:57;;;;;;;34.20;17.10;;;;;;;0.04;86.55;100106.14;130191;1257;114744;-69
2023/12/28 04:48:59;;;;;;;35.50;18.40;;;;;;;0.00;86.40;100105.48;130315;1259;115106;-70
2023/12/28 04:52:02;;;;;;;36.30;18.90;;;;;;;-0.07;86.47;100099.21;129904;1260;114831;-71
2023/12/28 04:55:04;;;;;;;31.80;18.10;;;;;;;-0.10;86.62;100106.45;130172;1259;114785;-70
2023/12/28 04:58:06;;;;;;;29.60;17.80;;;;;;;-0.13;86.66;100112.95;130268;1259;114782;-68
2023/12/28 05:01:08;;;;;;;29.40;16.30;;;;;;;-0.16;86.46;100117.73;130189;1277;115334;-72
2023/12/28 05:04:11;;;;;;;40.00;18.60;;;;;;;-0.19;86.47;100125.65;129983;1277;114765;-72
2023/12/28 05:07:13;;;;;;;29.90;17.00;;;;;;;-0.24;86.65;100131.66;130199;1259;114761;-72
2023/12/28 05:10:15;;;;;;;36.20;18.80;;;;;;;-0.28;86.69;100128.52;129938;1260;115285;-73
2023/12/28 05:13:17;;;;;;;30.50;18.30;;;;;;;-0.33;86.79;100124.88;130203;1259;114753;-74
2023/12/28 05:16:20;;;;;;;27.00;14.90;;;;;;;-0.36;86.86;100127.20;129824;1262;114706;-71
2023/12/28 05:19:22;;;;;;;30.00;17.90;;;;;;;-0.38;86.94;100132.63;130268;1259;115428;-72
2023/12/28 05:22:24;;;;;;;27.50;16.30;;;;;;;-0.40;86.88;100130.20;130235;1277;115101;-74
2023/12/28 05:25:26;;;;;;;30.00;15.00;;;;;;;-0.40;86.89;100132.99;130221;1259;114737;-73
2023/12/28 05:28:28;;;;;;;27.60;15.70;;;;;;;-0.42;86.90;100128.98;130257;1255;128990;-74
2023/12/28 05:31:30;;;;;;;24.00;14.00;;;;;;;-0.43;86.87;100132.85;130246;1271;114811;-73
2023/12/28 05:34:32;;;;;;;23.00;13.10;;;;;;;-0.44;86.71;100128.13;130029;1255;114833;-70
2023/12/28 05:37:34;;;;;;;25.90;12.90;;;;;;;-0.47;86.94;100131.48;130054;1259;115400;-73
2023/12/28 05:40:36;;;;;;;23.00;12.10;;;;;;;-0.48;86.86;100144.46;129564;1278;114770;-72
2023/12/28 05:43:39;;;;;;;21.90;12.70;;;;;;;-0.49;87.14;100146.23;129868;1274;114765;-72
2023/12/28 05:46:41;;;;;;;23.30;11.80;;;;;;;-0.50;86.98;100145.54;129755;1259;114798;-71
2023/12/28 05:49:44;;;;;;;15.10;9.30;;;;;;;-0.51;87.11;100151.16;129926;1258;114756;-75
2023/12/28 05:52:46;;;;;;;14.50;8.70;;;;;;;-0.50;87.36;100157.28;130055;1259;117116;-74
2023/12/28 05:55:48;;;;;;;18.40;9.70;;;;;;;-0.48;87.50;100157.09;129785;1268;114882;-75
2023/12/28 05:58:50;;;;;;;17.30;8.90;;;;;;;-0.48;87.45;100158.15;129997;1259;115406;-72
2023/12/28 06:01:52;;;;;;;16.20;9.10;;;;;;;-0.47;87.38;100150.24;129880;1262;115186;-75
2023/12/28 06:04:54;;;;;;;15.80;10.00;;;;;;;-0.47;87.56;100153.39;129855;1262;114986;-72
2023/12/28 06:07:57;;;;;;;17.60;10.20;;;;;;;-0.46;87.40;100156.55;129988;1278;114671;-72
2023/12/28 06:10:59;;;;;;;15.80;8.80;;;;;;;-0.47;87.34;100149.36;130089;1269;114736;-71
2023/12/28 06:14:01;;;;;;;16.60;9.70;;;;;;;-0.46;87.60;100145.33;129938;1261;114749;-73
2023/12/28 06:17:03;;;;;;;15.20;9.20;;;;;;;-0.47;87.70;100153.40;129507;1278;114716;-74
2023/12/28 06:20:08;;;;;;;24.20;12.30;;;;;;;-0.47;87.77;100156.73;129792;1259;115161;-74
2023/12/28 06:23:10;;;;;;;35.80;19.40;;;;;;;-0.47;87.67;100161.46;130040;1263;114879;-74
2023/12/28 06:26:12;;;;;;;34.30;20.00;;;;;;;-0.45;88.11;100162.52;129960;1261;115168;-70
2023/12/28 06:29:14;;;;;;;38.30;22.20;;;;;;;-0.42;87.90;100165.30;130083;1257;115631;-69
2023/12/28 06:32:16;;;;;;;29.50;15.20;;;;;;;-0.42;87.99;100167.59;130138;1259;128980;-72
2023/12/28 06:35:18;;;;;;;32.30;16.90;;;;;;;-0.42;87.87;100168.27;130141;1271;114751;-71
2023/12/28 06:38:20;;;;;;;28.50;13.40;;;;;;;-0.41;88.03;100170.72;130234;1257;114765;-73
2023/12/28 06:41:23;;;;;;;23.30;15.00;;;;;;;-0.41;88.08;100169.15;130166;1256;115116;-74
2023/12/28 06:44:25;;;;;;;22.70;13.40;;;;;;;-0.39;88.22;100163.52;130142;1277;114839;-68
2023/12/28 06:47:27;;;;;;;16.30;9.00;;;;;;;-0.38;88.34;100151.41;130210;1277;115401;-74
2023/12/28 06:50:29;;;;;;;12.60;6.40;;;;;;;-0.33;88.71;100153.66;130217;1260;114744;-71
2023/12/28 06:53:32;;;;;;;10.30;5.40;;;;;;;-0.26;88.81;100150.09;129822;1277;127568;-72
2023/12/28 06:56:34;;;;;;;9.30;5.20;;;;;;;-0.15;89.17;100157.21;129970;1270;114801;-75
2023/12/28 06:59:36;;;;;;;10.70;4.50;;;;;;;-0.00;89.40;100156.38;129958;1277;115111;-71
2023/12/28 07:02:38;;;;;;;6.90;3.70;;;;;;;0.21;89.88;100154.09;130218;1277;114737;-75
2023/12/28 07:05:40;;;;;;;7.80;3.80;;;;;;;0.44;89.89;100150.88;130291;1278;114687;-67
2023/12/28 07:08:42;;;;;;;10.90;5.60;;;;;;;0.68;89.98;100142.02;130316;1268;114788;-76
2023/12/28 07:11:44;;;;;;;8.40;4.90;;;;;;;0.91;90.05;100147.70;129907;1277;114956;-79
2023/12/28 07:14:47;;;;;;;7.40;4.00;;;;;;;1.15;90.26;100146.34;130349;1277;114788;-78
2023/12/28 07:17:49;;;;;;;7.10;3.60;;;;;;;1.42;89.90;100143.85;130014;1260;114808;-78
2023/12/28 07:20:51;;;;;;;5.10;3.80;;;;;;;1.70;90.29;100151.54;130407;1258;114721;-78
2023/12/28 07:23:53;;;;;;;7.40;3.80;;;;;;;1.99;90.03;100154.59;130086;1262;115580;-74
2023/12/28 07:26:55;;;;;;;5.10;2.80;;;;;;;2.29;89.86;100150.20;130171;1260;114782;-76
2023/12/28 07:29:57;;;;;;;3.20;1.80;;;;;;;2.65;89.87;100152.71;130314;1254;114788;-72
2023/12/28 07:32:59;;;;;;;5.40;2.50;;;;;;;3.01;89.69;100152.34;129913;1262;114836;-72
2023/12/28 07:36:03;;;;;;;3.70;2.40;;;;;;;3.38;89.16;100141.15;130199;1258;114793;-66
2023/12/28 07:39:06;;;;;;;4.10;2.10;;;;;;;3.74;88.74;100151.60;130191;1268;115236;-66
2023/12/28 07:42:08;;;;;;;3.70;2.00;;;;;;;4.12;88.37;100155.10;130149;1267;115405;-72
2023/12/28 07:45:10;;;;;;;4.70;2.90;;;;;;;4.49;87.88;100159.63;130179;1257;115189;-77
2023/12/28 07:48:13;;;;;;;4.90;2.20;;;;;;;4.83;87.20;100156.04;129970;1262;114873;-78
2023/12/28 07:51:15;;;;;;;6.80;2.50;;;;;;;5.13;86.56;100156.45;130112;1263;114773;-73
2023/12/28 07:54:17;;;;;;;4.60;2.10;;;;;;;5.39;85.87;100156.89;130158;1267;114795;-76
2023/12/28 07:57:19;;;;;;;7.00;3.00;;;;;;;5.62;85.29;100148.75;130224;1259;114785;-78
2023/12/28 08:00:21;;;;;;;4.80;2.60;;;;;;;5.84;84.72;100160.12;129877;1260;114927;-79
2023/12/28 08:03:24;;;;;;;3.70;2.30;;;;;;;6.04;84.07;100156.98;130277;1259;115383;-75
2023/12/28 08:06:26;;;;;;;4.80;2.10;;;;;;;6.24;83.69;100154.58;130295;1259;114736;-73
2023/12/28 08:09:28;;;;;;;3.90;1.80;;;;;;;6.45;83.31;100158.30;130001;1254;114891;-82
2023/12/28 08:12:30;;;;;;;5.20;2.50;;;;;;;6.63;82.80;100165.48;130269;1260;115234;-81
2023/12/28 08:15:33;;;;;;;5.20;2.30;;;;;;;6.81;82.17;100165.38;130097;1266;114741;-82
2023/12/28 08:18:35;;;;;;;3.80;2.00;;;;;;;6.97;82.23;100166.20;130346;1257;128589;-81
2023/12/28 08:21:37;;;;;;;6.00;2.80;;;;;;;7.12;81.76;100179.84;130168;1260;115396;-83
2023/12/28 08:24:40;;;;;;;3.60;2.10;;;;;;;7.26;81.20;100179.86;130338;1268;115292;-65
2023/12/28 08:27:42;;;;;;;3.30;2.00;;;;;;;7.39;80.89;100175.46;130021;1275;114925;-72
2023/12/28 08:30:44;;;;;;;6.30;2.70;;;;;;;7.54;80.67;100171.01;130326;1259;115090;-66
2023/12/28 08:33:46;;;;;;;7.30;2.70;;;;;;;7.69;80.08;100180.18;130213;1267;114718;-69
2023/12/28 08:36:48;;;;;;;4.60;2.60;;;;;;;7.85;79.62;100186.14;130276;1254;115324;-65
2023/12/28 08:39:51;;;;;;;4.70;2.40;;;;;;;8.01;79.47;100186.91;130004;1260;128083;-77
2023/12/28 08:42:53;;;;;;;4.40;3.00;;;;;;;8.19;78.64;100184.56;130251;1257;115237;-76
2023/12/28 08:45:55;;;;;;;4.80;2.40;;;;;;;8.35;78.82;100179.27;130331;1259;114904;-64
2023/12/28 08:48:57;;;;;;;4.00;2.20;;;;;;;8.52;78.00;100184.30;129949;1260;115328;-74
2023/12/28 08:51:59;;;;;;;5.40;2.60;;;;;;;8.66;77.39;100186.34;129982;1258;114721;-65
2023/12/28 08:55:03;;;;;;;4.30;2.00;;;;;;;8.79;76.87;100189.55;130249;1264;115312;-66
2023/12/28 08:58:05;;;;;;;6.50;2.70;;;;;;;8.89;76.44;100192.85;130164;1272;114706;-66
2023/12/28 09:01:07;;;;;;;4.90;1.70;;;;;;;8.97;76.43;100197.63;129959;1261;127835;-65
2023/12/28 09:04:11;;;;;;;6.40;3.70;;;;;;;9.05;75.78;100204.98;129936;1269;114894;-66
2023/12/28 09:07:13;;;;;;;4.80;2.70;;;;;;;9.09;75.48;100205.11;129981;1259;114811;-64
2023/12/28 09:10:16;;;;;;;4.40;2.50;;;;;;;9.12;75.17;100204.80;129728;1260;114722;-66
2023/12/28 09:13:19;;;;;;;4.40;2.60;;;;;;;9.15;74.80;100215.38;129984;1259;114722;-65
2023/12/28 09:16:21;;;;;;;4.90;2.30;;;;;;;9.18;74.56;100230.06;129606;1277;115075;-68
2023/12/28 09:19:24;;;;;;;10.00;2.70;;;;;;;9.20;74.45;100232.06;129933;1277;114805;-64
2023/12/28 09:22:27;;;;;;;3.50;2.10;;;;;;;9.24;74.13;100221.23;129944;1260;114829;-65
2023/12/28 09:25:29;;;;;;;4.90;2.40;;;;;;;9.29;73.99;100224.02;129916;1260;115186;-68
2023/12/28 09:28:39;;;;;;;3.80;2.30;;;;;;;9.34;73.89;100220.58;129668;1273;115396;-64
2023/12/28 09:31:42;;;;;;;5.40;3.10;;;;;;;9.37;73.29;100224.95;130131;1260;114807;-66
2023/12/28 09:34:44;;;;;;;5.90;2.60;;;;;;;9.39;73.17;100215.05;130083;1268;114728;-63
2023/12/28 09:37:48;;;;;;;5.70;3.60;;;;;;;9.41;73.28;100204.42;129964;1277;114814;-68
2023/12/28 09:40:53;;;;;;;6.80;3.00;;;;;;;9.41;72.81;100207.06;130025;1277;114989;-67
2023/12/28 09:44:12;;;;;;;5.10;2.50;;;;;;;9.42;72.37;100205.95;130084;1277;114782;-66
2023/12/28 09:47:15;;;;;;;7.10;3.00;;;;;;;9.42;72.22;100207.02;129897;1275;114800;-64
2023/12/28 09:50:18;;;;;;;5.20;3.10;;;;;;;9.41;71.96;100201.34;129873;1277;114757;-71
2023/12/28 09:53:22;;;;;;;5.70;3.10;;;;;;;9.42;71.80;100204.36;129900;1260;128703;-67
2023/12/28 09:56:25;;;;;;;5.30;3.10;;;;;;;9.42;71.98;100209.32;129631;1260;114927;-72
2023/12/28 09:59:28;;;;;;;5.60;2.70;;;;;;;9.43;72.03;100214.84;129790;1267;116028;-66
2023/12/28 10:02:30;;;;;;;6.80;3.30;;;;;;;9.44;72.15;100208.20;130019;1260;115507;-77
2023/12/28 10:05:33;;;;;;;4.10;2.50;;;;;;;9.46;72.06;100203.31;130070;1267;114811;-74
2023/12/28 10:08:35;;;;;;;4.50;2.80;;;;;;;9.47;71.69;100192.02;130096;1277;114986;-75
2023/12/28 10:11:38;;;;;;;4.60;2.60;;;;;;;9.47;71.22;100180.05;129910;1256;115180;-71
2023/12/28 10:14:41;;;;;;;4.50;2.60;;;;;;;9.48;71.47;100172.35;130304;1270;115202;-74
2023/12/28 10:17:46;;;;;;;4.30;2.50;;;;;;;9.51;71.46;100179.00;130697;1260;114917;-72
2023/12/28 10:20:52;;;;;;;7.50;2.70;;;;;;;9.53;71.30;100179.23;130771;1259;114782;-76
2023/12/28 10:23:55;;;;;;;4.10;2.50;;;;;;;9.57;71.37;100188.13;130152;1278;114748;-72
2023/12/28 10:26:57;;;;;;;4.60;2.70;;;;;;;9.61;71.13;100187.96;130047;1268;115199;-69
2023/12/28 10:30:00;;;;;;;5.30;3.60;;;;;;;9.64;70.81;100179.64;129890;1277;115343;-64
2023/12/28 10:33:06;;;;;;;5.00;3.00;;;;;;;9.65;70.65;100185.11;130008;1254;114726;-73
2023/12/28 10:36:08;;;;;;;6.20;3.60;;;;;;;9.67;70.39;100202.13;129958;1264;115096;-66
2023/12/28 10:39:13;;;;;;;5.50;2.90;;;;;;;9.69;70.17;100208.98;130241;1260;114795;-65
2023/12/28 10:43:00;;;;;;;5.10;3.20;;;;;;;9.70;70.15;100211.22;129448;1254;128626;-67
2023/12/28 10:46:04;;;;;;;6.70;3.90;;;;;;;9.71;69.91;100208.86;129086;1269;115908;-64
2023/12/28 10:49:12;;;;;;;6.60;3.30;;;;;;;9.71;69.96;100214.77;129034;1270;114850;-65
2023/12/28 10:52:16;;;;;;;4.20;2.80;;;;;;;9.71;69.98;100216.02;128876;1274;115439;-64
2023/12/28 10:55:20;;;;;;;6.20;3.80;;;;;;;9.72;70.02;100212.55;128941;1278;114911;-66
2023/12/28 10:58:39;;;;;;;5.50;3.20;;;;;;;9.75;70.15;100212.45;129148;1285;127851;-65
2023/12/28 11:01:42;;;;;;;5.70;3.40;;;;;;;9.80;70.17;100214.15;128933;1285;115420;-65
2023/12/28 11:04:48;;;;;;;6.30;3.00;;;;;;;9.86;70.30;100208.70;129126;1268;114877;-75
2023/12/28 11:07:56;;;;;;;5.20;2.50;;;;;;;9.92;70.17;100199.73;128942;1275;114858;-69
2023/12/28 11:11:01;;;;;;;6.80;4.60;;;;;;;9.98;70.43;100195.11;128863;1285;307950;-70
2023/12/28 11:14:03;;;;;;;6.20;3.10;;;;;;;10.04;70.38;100186.08;128875;1268;128867;-74
2023/12/28 11:17:06;;;;;;;10.30;4.30;;;;;;;10.09;70.32;100182.45;129077;1275;114988;-65
2023/12/28 11:20:09;;;;;;;5.80;3.20;;;;;;;10.13;70.11;100184.20;128995;1278;115255;-67
2023/12/28 11:23:12;;;;;;;8.10;3.90;;;;;;;10.17;70.32;100183.83;129417;1254;115395;-66
2023/12/28 11:26:21;;;;;;;7.50;4.20;;;;;;;10.20;69.92;100190.10;129824;1260;115240;-67
2023/12/28 11:29:24;;;;;;;7.60;4.50;;;;;;;10.23;69.68;100188.36;129678;1277;127648;-65
2023/12/28 11:32:27;;;;;;;6.70;3.80;;;;;;;10.26;69.76;100183.59;129934;1254;114805;-66
2023/12/28 11:35:39;;;;;;;8.70;3.90;;;;;;;10.28;69.80;100176.67;129915;1254;114824;-72
2023/12/28 11:38:42;;;;;;;11.60;6.20;;;;;;;10.30;69.52;100175.31;129641;1263;114909;-65
2023/12/28 11:41:44;;;;;;;8.70;5.60;;;;;;;10.34;69.48;100174.06;129909;1278;114759;-65
2023/12/28 11:44:49;;;;;;;7.10;3.60;;;;;;;10.37;69.55;100169.45;129924;1273;114753;-65
2023/12/28 11:48:02;;;;;;;9.20;4.40;;;;;;;10.38;69.38;100174.61;129825;1277;114732;-82
2023/12/28 11:51:04;;;;;;;8.90;4.20;;;;;;;10.38;69.58;100170.84;129795;1262;114914;-82
2023/12/28 11:54:07;;;;;;;8.10;4.50;;;;;;;10.39;69.33;100168.48;130055;1261;114696;-76
2023/12/28 11:57:09;;;;;;;10.60;4.70;;;;;;;10.39;69.35;100161.71;130036;1270;114830;-68
2023/12/28 12:00:13;;;;;;;7.90;4.20;;;;;;;10.37;68.87;100159.65;129943;1264;114726;-66
2023/12/28 12:03:15;;;;;;;9.30;4.90;;;;;;;10.35;69.11;100148.48;130067;1254;114762;-70
2023/12/28 12:06:19;;;;;;;8.10;4.10;;;;;;;10.34;69.15;100145.34;130174;1254;114780;-67
2023/12/28 12:09:22;;;;;;;9.30;3.90;;;;;;;10.33;68.54;100156.99;129933;1258;114795;-68
2023/12/28 12:12:25;;;;;;;10.70;4.70;;;;;;;10.32;68.68;100150.44;130008;1264;114792;-67
2023/12/28 12:15:29;;;;;;;6.80;3.50;;;;;;;10.29;68.89;100151.98;129957;1260;115288;-64
2023/12/28 12:18:32;;;;;;;11.50;4.60;;;;;;;10.26;68.51;100153.40;129916;1277;114751;-68
2023/12/28 12:21:39;;;;;;;8.00;4.00;;;;;;;10.25;68.88;100154.02;129941;1277;114737;-66
2023/12/28 12:24:44;;;;;;;8.10;4.20;;;;;;;10.23;68.73;100156.42;129794;1260;114783;-68
2023/12/28 12:27:46;;;;;;;7.40;4.30;;;;;;;10.20;68.37;100158.35;130282;1259;114717;-70
2023/12/28 12:30:58;;;;;;;8.90;4.60;;;;;;;10.16;68.76;100156.21;129702;1277;115421;-75
2023/12/28 12:34:00;;;;;;;8.70;4.80;;;;;;;10.13;68.53;100158.50;129907;1254;129048;-64
2023/12/28 12:37:04;;;;;;;11.30;6.10;;;;;;;10.09;68.51;100150.69;129967;1264;114894;-65
2023/12/28 12:40:08;;;;;;;12.10;5.80;;;;;;;10.04;68.68;100146.29;130211;1259;114821;-72
2023/12/28 12:43:10;;;;;;;9.20;5.00;;;;;;;9.99;68.55;100145.47;129960;1260;114734;-72
2023/12/28 12:46:12;;;;;;;9.70;4.60;;;;;;;9.93;68.66;100145.05;130055;1277;114888;-69
2023/12/28 12:49:16;;;;;;;9.50;4.10;;;;;;;9.87;68.38;100148.73;129964;1261;114737;-69
2023/12/28 12:52:20;;;;;;;7.40;4.30;;;;;;;9.82;68.48;100147.21;129667;1277;128156;-66
2023/12/28 12:55:23;;;;;;;6.20;4.00;;;;;;;9.76;68.77;100144.79;129932;1277;114838;-69
2023/12/28 12:58:26;;;;;;;7.50;3.20;;;;;;;9.72;68.71;100146.06;130095;1254;114786;-76
2023/12/28 13:01:29;;;;;;;10.50;4.20;;;;;;;9.67;68.60;100154.16;129954;1269;115413;-65
2023/12/28 13:04:32;;;;;;;8.10;3.70;;;;;;;9.63;68.62;100153.63;129941;1260;114810;-73
2023/12/28 13:07:34;;;;;;;5.80;3.50;;;;;;;9.59;68.61;100152.77;129920;1260;114774;-65
2023/12/28 13:10:36;;;;;;;6.80;3.60;;;;;;;9.54;68.51;100153.85;130065;1254;114791;-73
2023/12/28 13:13:39;;;;;;;5.10;3.30;;;;;;;9.50;68.60;100158.90;129934;1261;115298;-68
2023/12/28 13:16:41;;;;;;;5.90;3.60;;;;;;;9.44;68.55;100149.54;130319;1259;115163;-67
2023/12/28 13:19:43;;;;;;;6.80;3.70;;;;;;;9.39;68.53;100156.91;130020;1270;114794;-71
2023/12/28 13:22:47;;;;;;;7.30;4.50;;;;;;;9.34;68.65;100153.23;129971;1260;114795;-65
2023/12/28 13:25:49;;;;;;;6.30;3.80;;;;;;;9.30;68.71;100153.57;129983;1270;114718;-65
2023/12/28 13:28:51;;;;;;;9.40;4.90;;;;;;;9.25;68.79;100156.30;129909;1277;114842;-72
2023/12/28 13:31:54;;;;;;;12.50;5.50;;;;;;;9.21;68.92;100166.29;129999;1254;114712;-67
2023/12/28 13:34:56;;;;;;;9.10;4.60;;;;;;;9.16;68.98;100163.67;129685;1260;114746;-66
2023/12/28 13:38:01;;;;;;;9.40;4.70;;;;;;;9.12;68.95;100169.71;129960;1254;114821;-71
2023/12/28 13:41:03;;;;;;;10.50;5.50;;;;;;;9.08;68.87;100166.71;129948;1259;116382;-81
2023/12/28 13:44:10;;;;;;;6.10;3.80;;;;;;;9.04;68.82;100164.73;130063;1277;114942;-71
2023/12/28 13:47:12;;;;;;;6.80;4.30;;;;;;;8.98;68.74;100170.36;129621;1261;128713;-81
2023/12/28 13:50:15;;;;;;;6.30;3.80;;;;;;;8.91;68.67;100168.89;130005;1264;115325;-82